KRFD/RFD METAR and TAF weather

Enter ICAO airport designator
Station Type Date Time Source
KRFD METAR 2019/05/19 05:54 UTC NOAA

KRFD 190554Z 09010KT 8SM -RA BKN075 OVC090 18/16 A2964 RMK AO2 RAB27 SLP035 P0001 60001 T01780156 10200 20178 402060083 57018 $


Station Type Date Time Source
KRFD Decoded METAR 2019/05/19 05:54 UTC NOAA

GREATER ROCKFORD AIRPORT, IL, United States (KRFD) 42-12N 89-06W 221M
May 19, 2019 - 01:54 AM EDT / 2019.05.19 0554 UTC
Wind: from the E (090 degrees) at 12 MPH (10 KT):0
Visibility: 8 mile(s):0
Sky conditions: overcast
Weather: light rain
Precipitation last hour: 0.01 inches
Temperature: 64.0 F (17.8 C)
Dew Point: 60.1 F (15.6 C)
Relative Humidity: 86%
Pressure (altimeter): 29.64 in. Hg (1003 hPa)
Pressure tendency: 0.05 inches (1.8 hPa) lower than three hours ago
ob: KRFD 190554Z 09010KT 8SM -RA BKN075 OVC090 18/16 A2964 RMK AO2 RAB27 SLP035 P0001 60001 T01780156 10200 20178 402060083 57018
cycle: 6

Station Type Date Time Source
KRFD TAF 2019/05/19 06:39 UTC NOAA

TAF KRFD 190535Z 1906/2006 10012KT P6SM -SHRA SCT050 BKN080
FM191000 17012KT 6SM -SHRA SCT015 BKN020
FM191600 20020G32KT P6SM VCTS BKN025CB
FM191800 24025G36KT P6SM SCT050
FM200200 27017G25KT P6SM BKN035

Example: see airport list